Roseland, Florida
Current Conditions -  °F | °C
As of 6:53 PM on Friday 24 Oct 2014 (Local Time) from KVRB Reporting Station
Broken Clouds Broken Clouds  
Wind Chill: 74°   Ceiling: 4400
Heat Index: 74°   Visibility: 10mi
Dew Point: 59°   Wind: 13mph
Humidity: 59%   Direction: 30°NNE
Pressure: 29.89"   Gusts: NA
Location:  27.84°N, 80.49°W
Report Text: KVRB 242253Z 03011KT 10SM BKN044 23/15 A2989 RMK AO2 SLP121 T02330150
Loading
Personal Weather Stations






























Interactive Weather Map
Tropical Storm Tracking
New forecast layout! Learn more

10-Day Weather Forecast

Advertisements
Track Severe Weather on mobile